sensor_id;sensor_type;location;lat;lon;timestamp;pressure;altitude;pressure_sealevel;temperature;humidity
11302;BME280;5706;50.650;13.380;2023-04-09T01:43:27;91628.53;;;-140.63;73.26
11302;BME280;5706;50.650;13.380;2023-04-09T01:45:56;91636.56;;;-140.63;74.30
11302;BME280;5706;50.650;13.380;2023-04-09T01:48:28;91622.50;;;-140.63;74.39
11302;BME280;5706;50.650;13.380;2023-04-09T01:50:57;91566.25;;;-140.63;73.44
11302;BME280;5706;50.650;13.380;2023-04-09T01:53:25;91598.38;;;-140.63;73.27
11302;BME280;5706;50.650;13.380;2023-04-09T01:55:53;91588.34;;;-140.63;73.53
11302;BME280;5706;50.650;13.380;2023-04-09T01:58:21;91580.31;;;-140.63;73.11
11302;BME280;5706;50.650;13.380;2023-04-09T02:00:54;91560.22;;;-140.63;72.80
11302;BME280;5706;50.650;13.380;2023-04-09T02:03:28;91562.22;;;-140.63;72.96
11302;BME280;5706;50.650;13.380;2023-04-09T02:06:04;91612.44;;;-140.63;73.17
11302;BME280;5706;50.650;13.380;2023-04-09T02:08:38;91598.38;;;-140.63;73.01
11302;BME280;5706;50.650;13.380;2023-04-09T02:11:10;91580.31;;;-140.63;72.63
11302;BME280;5706;50.650;13.380;2023-04-09T02:13:39;91584.31;;;-140.63;72.50
11302;BME280;5706;50.650;13.380;2023-04-09T02:16:11;91606.44;;;-140.63;72.78
11302;BME280;5706;50.650;13.380;2023-04-09T02:18:40;91588.34;;;-140.63;73.13
11302;BME280;5706;50.650;13.380;2023-04-09T02:21:09;91604.41;;;-140.63;73.24
11302;BME280;5706;50.650;13.380;2023-04-09T02:23:38;91594.38;;;-140.63;73.21
11302;BME280;5706;50.650;13.380;2023-04-09T02:26:05;91604.41;;;-140.63;72.80
11302;BME280;5706;50.650;13.380;2023-04-09T02:28:33;91602.41;;;-140.63;73.14
11302;BME280;5706;50.650;13.380;2023-04-09T02:31:00;91604.41;;;-140.63;73.23
11302;BME280;5706;50.650;13.380;2023-04-09T02:33:29;91604.41;;;-140.63;73.55
11302;BME280;5706;50.650;13.380;2023-04-09T02:35:57;91560.22;;;-140.63;72.85
11302;BME280;5706;50.650;13.380;2023-04-09T02:38:25;91606.44;;;-140.63;72.68
11302;BME280;5706;50.650;13.380;2023-04-09T02:40:52;91594.38;;;-140.63;73.03
11302;BME280;5706;50.650;13.380;2023-04-09T02:43:20;91608.44;;;-140.63;72.78
11302;BME280;5706;50.650;13.380;2023-04-09T02:45:47;91572.28;;;-140.63;72.50
11302;BME280;5706;50.650;13.380;2023-04-09T02:48:15;91586.34;;;-140.63;72.66
11302;BME280;5706;50.650;13.380;2023-04-09T02:50:44;91560.22;;;-140.63;72.58
11302;BME280;5706;50.650;13.380;2023-04-09T02:53:11;91548.16;;;-140.63;72.34
11302;BME280;5706;50.650;13.380;2023-04-09T02:55:39;91544.16;;;-140.63;72.61
11302;BME280;5706;50.650;13.380;2023-04-09T02:58:07;91580.31;;;-140.63;72.49
11302;BME280;5706;50.650;13.380;2023-04-09T03:00:34;91582.31;;;-140.63;72.00
11302;BME280;5706;50.650;13.380;2023-04-09T03:03:02;91590.34;;;-140.63;72.56
11302;BME280;5706;50.650;13.380;2023-04-09T03:05:29;91578.31;;;-140.63;72.75
11302;BME280;5706;50.650;13.380;2023-04-09T03:07:58;91564.25;;;-140.63;72.58
11302;BME280;5706;50.650;13.380;2023-04-09T03:10:28;91594.38;;;-140.63;72.35
11302;BME280;5706;50.650;13.380;2023-04-09T03:12:55;91672.72;;;-140.63;72.10
11302;BME280;5706;50.650;13.380;2023-04-09T03:15:23;91552.19;;;-140.63;72.59
11302;BME280;5706;50.650;13.380;2023-04-09T03:17:51;91574.28;;;-140.63;72.78
11302;BME280;5706;50.650;13.380;2023-04-09T03:20:18;91564.25;;;-140.63;72.88
11302;BME280;5706;50.650;13.380;2023-04-09T03:22:46;91451.75;;;-140.63;72.63
11302;BME280;5706;50.650;13.380;2023-04-09T03:25:15;91584.31;;;-140.63;72.35
11302;BME280;5706;50.650;13.380;2023-04-09T03:27:43;91578.31;;;-140.63;72.33
11302;BME280;5706;50.650;13.380;2023-04-09T03:30:11;91564.25;;;-140.63;72.66
11302;BME280;5706;50.650;13.380;2023-04-09T03:32:39;91572.28;;;-140.63;72.71
11302;BME280;5706;50.650;13.380;2023-04-09T03:35:07;91558.22;;;-140.63;72.44
11302;BME280;5706;50.650;13.380;2023-04-09T03:37:34;91548.16;;;-140.63;71.67
11302;BME280;5706;50.650;13.380;2023-04-09T03:40:03;91554.19;;;-140.63;71.24
11302;BME280;5706;50.650;13.380;2023-04-09T03:42:32;91528.09;;;-140.63;71.67
11302;BME280;5706;50.650;13.380;2023-04-09T03:45:02;91612.44;;;-140.63;71.49
11302;BME280;5706;50.650;13.380;2023-04-09T03:47:30;91562.22;;;-140.63;71.79
11302;BME280;5706;50.650;13.380;2023-04-09T03:49:59;91556.19;;;-140.63;71.80
11302;BME280;5706;50.650;13.380;2023-04-09T03:52:26;91540.13;;;-140.63;71.55
11302;BME280;5706;50.650;13.380;2023-04-09T03:54:54;91554.19;;;-140.63;71.24
11302;BME280;5706;50.650;13.380;2023-04-09T03:57:21;91576.28;;;-140.63;71.26
11302;BME280;5706;50.650;13.380;2023-04-09T03:59:50;91542.16;;;-140.63;71.27
11302;BME280;5706;50.650;13.380;2023-04-09T04:02:18;91558.22;;;-140.63;72.04
11302;BME280;5706;50.650;13.380;2023-04-09T04:04:45;91556.19;;;-140.63;71.60
11302;BME280;5706;50.650;13.380;2023-04-09T04:07:13;91518.03;;;-140.63;70.81
11302;BME280;5706;50.650;13.380;2023-04-09T04:09:41;91536.13;;;-140.63;70.58
11302;BME280;5706;50.650;13.380;2023-04-09T04:12:08;91570.25;;;-140.63;70.98
11302;BME280;5706;50.650;13.380;2023-04-09T04:14:36;91552.19;;;-140.63;71.11
11302;BME280;5706;50.650;13.380;2023-04-09T04:17:05;91536.13;;;-140.63;70.54
11302;BME280;5706;50.650;13.380;2023-04-09T04:19:32;91534.09;;;-140.63;71.54
11302;BME280;5706;50.650;13.380;2023-04-09T04:22:00;91536.13;;;-140.63;70.72
11302;BME280;5706;50.650;13.380;2023-04-09T04:24:28;91576.28;;;-140.63;70.46
11302;BME280;5706;50.650;13.380;2023-04-09T04:26:56;91540.13;;;-140.63;70.72
11302;BME280;5706;50.650;13.380;2023-04-09T04:29:26;91487.91;;;-140.63;71.30
11302;BME280;5706;50.650;13.380;2023-04-09T04:31:54;91516.03;;;-140.63;70.85
11302;BME280;5706;50.650;13.380;2023-04-09T04:34:23;91540.13;;;-140.63;71.38
11302;BME280;5706;50.650;13.380;2023-04-09T04:36:50;91550.19;;;-140.63;71.47
11302;BME280;5706;50.650;13.380;2023-04-09T04:39:18;91505.97;;;-140.63;70.76
11302;BME280;5706;50.650;13.380;2023-04-09T04:41:46;91540.13;;;-140.63;70.89
11302;BME280;5706;50.650;13.380;2023-04-09T04:44:13;91508.00;;;-140.63;70.87
11302;BME280;5706;50.650;13.380;2023-04-09T04:46:41;91520.03;;;-140.63;70.54
11302;BME280;5706;50.650;13.380;2023-04-09T04:49:09;91491.94;;;-140.63;70.54
11302;BME280;5706;50.650;13.380;2023-04-09T04:51:38;91524.06;;;-140.63;70.22
11302;BME280;5706;50.650;13.380;2023-04-09T04:54:06;91508.00;;;-140.63;70.68
11302;BME280;5706;50.650;13.380;2023-04-09T04:56:33;91514.03;;;-140.63;71.06
11302;BME280;5706;50.650;13.380;2023-04-09T04:59:01;91516.03;;;-140.63;70.62
11302;BME280;5706;50.650;13.380;2023-04-09T05:01:29;91518.03;;;-140.63;71.18
11302;BME280;5706;50.650;13.380;2023-04-09T05:03:57;91534.09;;;-140.63;71.24
11302;BME280;5706;50.650;13.380;2023-04-09T05:06:25;91505.97;;;-140.63;71.00
11302;BME280;5706;50.650;13.380;2023-04-09T05:08:55;91497.94;;;-140.63;70.77
11302;BME280;5706;50.650;13.380;2023-04-09T05:11:23;91520.03;;;-140.63;70.85
11302;BME280;5706;50.650;13.380;2023-04-09T05:13:51;91501.97;;;-140.63;70.68
11302;BME280;5706;50.650;13.380;2023-04-09T05:16:19;91499.97;;;-140.63;71.31
11302;BME280;5706;50.650;13.380;2023-04-09T05:18:46;91536.13;;;-140.63;71.36
11302;BME280;5706;50.650;13.380;2023-04-09T05:21:14;91495.94;;;-140.63;71.27
11302;BME280;5706;50.650;13.380;2023-04-09T05:23:42;91503.97;;;-140.63;71.08
11302;BME280;5706;50.650;13.380;2023-04-09T05:26:11;91495.94;;;-140.63;71.13
11302;BME280;5706;50.650;13.380;2023-04-09T05:28:39;91510.00;;;-140.63;70.68
11302;BME280;5706;50.650;13.380;2023-04-09T05:31:06;91477.88;;;-140.63;71.04
11302;BME280;5706;50.650;13.380;2023-04-09T05:33:37;91481.88;;;-140.63;70.40
11302;BME280;5706;50.650;13.380;2023-04-09T05:36:06;91431.66;;;-140.63;69.84
11302;BME280;5706;50.650;13.380;2023-04-09T05:38:34;91449.75;;;-140.63;69.63
11302;BME280;5706;50.650;13.380;2023-04-09T05:41:02;91495.94;;;-140.63;69.44
11302;BME280;5706;50.650;13.380;2023-04-09T05:43:31;91501.97;;;-140.63;69.99
11302;BME280;5706;50.650;13.380;2023-04-09T05:45:59;91455.75;;;-140.63;70.02
11302;BME280;5706;50.650;13.380;2023-04-09T05:48:28;91473.84;;;-140.63;70.27
11302;BME280;5706;50.650;13.380;2023-04-09T05:50:56;91467.81;;;-140.63;70.26
11302;BME280;5706;50.650;13.380;2023-04-09T05:53:24;91427.66;;;-140.63;70.98
11302;BME280;5706;50.650;13.380;2023-04-09T05:55:56;91447.72;;;-140.63;69.29
11302;BME280;5706;50.650;13.380;2023-04-09T05:58:46;91445.72;;;-140.63;68.86
11302;BME280;5706;50.650;13.380;2023-04-09T06:01:14;91463.81;;;-140.63;68.85
11302;BME280;5706;50.650;13.380;2023-04-09T06:03:42;91471.84;;;-140.63;69.51
11302;BME280;5706;50.650;13.380;2023-04-09T06:06:12;91433.66;;;-140.63;70.22
11302;BME280;5706;50.650;13.380;2023-04-09T06:08:40;91461.78;;;-140.63;70.41
11302;BME280;5706;50.650;13.380;2023-04-09T06:11:10;91437.69;;;-140.63;70.41
11302;BME280;5706;50.650;13.380;2023-04-09T06:13:39;91421.63;;;-140.63;71.13
11302;BME280;5706;50.650;13.380;2023-04-09T06:16:09;91419.59;;;-140.63;69.77
11302;BME280;5706;50.650;13.380;2023-04-09T06:18:37;91407.56;;;-140.63;70.17
11302;BME280;5706;50.650;13.380;2023-04-09T06:21:07;91429.66;;;-140.63;68.90
11302;BME280;5706;50.650;13.380;2023-04-09T06:23:38;91377.44;;;-140.63;68.62
11302;BME280;5706;50.650;13.380;2023-04-09T06:26:07;91395.50;;;-140.63;68.95
11302;BME280;5706;50.650;13.380;2023-04-09T06:28:35;91395.50;;;-140.63;69.12
11302;BME280;5706;50.650;13.380;2023-04-09T06:31:03;91361.34;;;-140.63;68.21
11302;BME280;5706;50.650;13.380;2023-04-09T06:33:33;91393.50;;;-140.63;69.35
11302;BME280;5706;50.650;13.380;2023-04-09T06:36:01;91391.50;;;-140.63;69.16
11302;BME280;5706;50.650;13.380;2023-04-09T06:38:29;91345.28;;;-140.63;69.21
11302;BME280;5706;50.650;13.380;2023-04-09T06:40:57;91307.13;;;-140.63;69.37
11302;BME280;5706;50.650;13.380;2023-04-09T06:43:24;91329.22;;;-140.63;69.28
11302;BME280;5706;50.650;13.380;2023-04-09T06:45:52;91238.81;;;-140.63;67.37
11302;BME280;5706;50.650;13.380;2023-04-09T06:48:20;91172.53;;;-140.63;66.47
11302;BME280;5706;50.650;13.380;2023-04-09T06:50:49;91108.28;;;-140.63;64.94
11302;BME280;5706;50.650;13.380;2023-04-09T06:53:16;91132.38;;;-140.63;63.80
11302;BME280;5706;50.650;13.380;2023-04-09T06:55:44;91039.97;;;-140.63;61.88
11302;BME280;5706;50.650;13.380;2023-04-09T06:58:12;90995.78;;;-140.63;59.56
11302;BME280;5706;50.650;13.380;2023-04-09T07:00:40;90917.47;;;-140.63;57.18
11302;BME280;5706;50.650;13.380;2023-04-09T07:03:08;90774.88;;;-140.63;54.93
11302;BME280;5706;50.650;13.380;2023-04-09T07:05:36;90664.41;;;-140.63;52.12
11302;BME280;5706;50.650;13.380;2023-04-09T07:08:05;90680.47;;;-140.63;52.17
11302;BME280;5706;50.650;13.380;2023-04-09T07:10:32;90555.97;;;-140.63;51.65
11302;BME280;5706;50.650;13.380;2023-04-09T07:13:00;90574.03;;;-140.63;49.37
11302;BME280;5706;50.650;13.380;2023-04-09T07:15:37;90525.84;;;-140.63;48.78
11302;BME280;5706;50.650;13.380;2023-04-09T07:18:04;90654.38;;;-140.63;49.74
11302;BME280;5706;50.650;13.380;2023-04-09T07:20:32;90756.78;;;-140.63;52.14
11302;BME280;5706;50.650;13.380;2023-04-09T07:23:00;90835.13;;;-140.63;53.28
11302;BME280;5706;50.650;13.380;2023-04-09T07:25:29;90905.41;;;-140.63;55.94
11302;BME280;5706;50.650;13.380;2023-04-09T07:27:57;90841.16;;;-140.63;54.93
11302;BME280;5706;50.650;13.380;2023-04-09T07:30:25;90873.28;;;-140.63;53.68
11302;BME280;5706;50.650;13.380;2023-04-09T07:32:52;90963.66;;;-140.63;56.67
11302;BME280;5706;50.650;13.380;2023-04-09T07:35:20;90933.53;;;-140.63;56.36
11302;BME280;5706;50.650;13.380;2023-04-09T07:37:48;91011.88;;;-140.63;56.26
11302;BME280;5706;50.650;13.380;2023-04-09T07:40:15;91058.06;;;-140.63;57.92
11302;BME280;5706;50.650;13.380;2023-04-09T07:42:44;90999.81;;;-140.63;57.36
11302;BME280;5706;50.650;13.380;2023-04-09T07:45:12;90901.41;;;-140.63;58.77
11302;BME280;5706;50.650;13.380;2023-04-09T07:47:41;91044.00;;;-140.63;60.30
11302;BME280;5706;50.650;13.380;2023-04-09T07:50:09;91011.88;;;-140.63;59.43
11302;BME280;5706;50.650;13.380;2023-04-09T07:52:37;91021.91;;;-140.63;58.33
11302;BME280;5706;50.650;13.380;2023-04-09T07:55:05;90959.66;;;-140.63;58.35
11302;BME280;5706;50.650;13.380;2023-04-09T07:57:33;90869.25;;;-140.63;57.62
11302;BME280;5706;50.650;13.380;2023-04-09T08:00:03;90895.38;;;-140.63;57.39
11302;BME280;5706;50.650;13.380;2023-04-09T08:02:31;90917.47;;;-140.63;57.02
11302;BME280;5706;50.650;13.380;2023-04-09T08:04:59;90897.38;;;-140.63;56.46
11302;BME280;5706;50.650;13.380;2023-04-09T08:07:27;90931.53;;;-140.63;56.77
11302;BME280;5706;50.650;13.380;2023-04-09T08:09:54;90913.44;;;-140.63;56.39
11302;BME280;5706;50.650;13.380;2023-04-09T08:12:22;90913.44;;;-140.63;57.04
11302;BME280;5706;50.650;13.380;2023-04-09T08:14:49;90925.50;;;-140.63;57.63
11302;BME280;5706;50.650;13.380;2023-04-09T08:17:19;90919.47;;;-140.63;58.93
11302;BME280;5706;50.650;13.380;2023-04-09T08:19:47;90897.38;;;-140.63;57.73
11302;BME280;5706;50.650;13.380;2023-04-09T08:22:15;90875.28;;;-140.63;56.76
11302;BME280;5706;50.650;13.380;2023-04-09T08:24:42;90953.63;;;-140.63;58.18
11302;BME280;5706;50.650;13.380;2023-04-09T08:27:10;90935.53;;;-140.63;57.53
11302;BME280;5706;50.650;13.380;2023-04-09T08:29:37;90891.34;;;-140.63;57.94
11302;BME280;5706;50.650;13.380;2023-04-09T08:32:06;90861.22;;;-140.63;56.49
11302;BME280;5706;50.650;13.380;2023-04-09T08:34:36;90853.19;;;-140.63;56.64
11302;BME280;5706;50.650;13.380;2023-04-09T08:37:03;90837.13;;;-140.63;57.36
11302;BME280;5706;50.650;13.380;2023-04-09T08:39:31;90885.34;;;-140.63;57.83
11302;BME280;5706;50.650;13.380;2023-04-09T08:42:00;90873.28;;;-140.63;57.24
11302;BME280;5706;50.650;13.380;2023-04-09T08:44:31;90845.16;;;-140.63;55.31
11302;BME280;5706;50.650;13.380;2023-04-09T08:46:59;90813.03;;;-140.63;55.49
11302;BME280;5706;50.650;13.380;2023-04-09T08:49:27;90768.84;;;-140.63;56.51
11302;BME280;5706;50.650;13.380;2023-04-09T08:51:56;90796.97;;;-140.63;56.11
11302;BME280;5706;50.650;13.380;2023-04-09T08:54:23;90843.16;;;-140.63;56.18
11302;BME280;5706;50.650;13.380;2023-04-09T08:56:51;90748.75;;;-140.63;56.28
11302;BME280;5706;50.650;13.380;2023-04-09T08:59:20;90760.81;;;-140.63;55.99
11302;BME280;5706;50.650;13.380;2023-04-09T09:01:48;90760.81;;;-140.63;55.04
11302;BME280;5706;50.650;13.380;2023-04-09T09:04:42;90782.91;;;-140.63;54.94
11302;BME280;5706;50.650;13.380;2023-04-09T09:07:13;90726.66;;;-140.63;53.33
11302;BME280;5706;50.650;13.380;2023-04-09T09:09:52;90720.66;;;-140.63;54.31
11302;BME280;5706;50.650;13.380;2023-04-09T09:12:31;90710.59;;;-140.63;53.85
11302;BME280;5706;50.650;13.380;2023-04-09T09:15:00;90660.41;;;-140.63;53.12
11302;BME280;5706;50.650;13.380;2023-04-09T09:17:28;90539.91;;;-140.63;51.95
11302;BME280;5706;50.650;13.380;2023-04-09T09:19:56;90582.06;;;-140.63;50.24
11302;BME280;5706;50.650;13.380;2023-04-09T09:22:25;90592.13;;;-140.63;50.37
11302;BME280;5706;50.650;13.380;2023-04-09T09:24:53;90590.09;;;-140.63;50.19
11302;BME280;5706;50.650;13.380;2023-04-09T09:27:32;90668.44;;;-140.63;51.37
11302;BME280;5706;50.650;13.380;2023-04-09T09:30:01;90664.41;;;-140.63;50.26
11302;BME280;5706;50.650;13.380;2023-04-09T09:32:30;90521.81;;;-140.63;50.09
11302;BME280;5706;50.650;13.380;2023-04-09T09:35:01;90441.50;;;-140.63;47.39
11302;BME280;5706;50.650;13.380;2023-04-09T09:37:32;90417.41;;;-140.63;46.76
11302;BME280;5706;50.650;13.380;2023-04-09T09:40:00;90256.75;;;-140.63;46.09
11302;BME280;5706;50.650;13.380;2023-04-09T09:42:30;90045.91;;;-140.63;43.41
11302;BME280;5706;50.650;13.380;2023-04-09T09:44:57;90315.00;;;-140.63;42.58
11302;BME280;5706;50.650;13.380;2023-04-09T09:47:28;90363.19;;;-140.63;43.74
11302;BME280;5706;50.650;13.380;2023-04-09T09:49:56;90525.84;;;-140.63;46.34
11302;BME280;5706;50.650;13.380;2023-04-09T09:52:24;90529.88;;;-140.63;46.95
11302;BME280;5706;50.650;13.380;2023-04-09T09:54:54;90210.56;;;-140.63;46.62
11302;BME280;5706;50.650;13.380;2023-04-09T09:57:24;89921.44;;;-140.63;41.26
11302;BME280;5706;50.650;13.380;2023-04-09T09:59:57;89909.38;;;-140.63;39.60
11302;BME280;5706;50.650;13.380;2023-04-09T10:02:32;89780.88;;;-140.63;39.16
11302;BME280;5706;50.650;13.380;2023-04-09T10:05:07;89517.88;;;-140.63;37.64
11302;BME280;5706;50.650;13.380;2023-04-09T10:07:36;90017.81;;;-140.63;37.61
11302;BME280;5706;50.650;13.380;2023-04-09T10:10:07;90327.03;;;-140.63;39.33
11302;BME280;5706;50.650;13.380;2023-04-09T10:12:35;90427.44;;;-140.63;40.70
11302;BME280;5706;50.650;13.380;2023-04-09T10:15:03;90465.59;;;-140.63;43.31
11302;BME280;5706;50.650;13.380;2023-04-09T10:17:32;90469.63;;;-140.63;43.44
11302;BME280;5706;50.650;13.380;2023-04-09T10:20:06;90465.59;;;-140.63;44.00
11302;BME280;5706;50.650;13.380;2023-04-09T10:22:38;90459.56;;;-140.63;42.94
11302;BME280;5706;50.650;13.380;2023-04-09T10:25:09;90523.84;;;-140.63;43.77
11302;BME280;5706;50.650;13.380;2023-04-09T10:27:37;90511.78;;;-140.63;43.81
11302;BME280;5706;50.650;13.380;2023-04-09T10:30:06;90555.97;;;-140.63;43.63
11302;BME280;5706;50.650;13.380;2023-04-09T10:32:35;90562.00;;;-140.63;45.09
11302;BME280;5706;50.650;13.380;2023-04-09T10:35:03;90574.03;;;-140.63;45.47
11302;BME280;5706;50.650;13.380;2023-04-09T10:37:31;90592.13;;;-140.63;45.17
11302;BME280;5706;50.650;13.380;2023-04-09T10:40:02;90602.16;;;-140.63;45.66
11302;BME280;5706;50.650;13.380;2023-04-09T10:42:35;90608.19;;;-140.63;44.62
11302;BME280;5706;50.650;13.380;2023-04-09T10:45:07;90549.94;;;-140.63;44.04
11302;BME280;5706;50.650;13.380;2023-04-09T10:48:01;90566.00;;;-140.63;43.85
11302;BME280;5706;50.650;13.380;2023-04-09T10:50:31;90555.97;;;-140.63;43.99
11302;BME280;5706;50.650;13.380;2023-04-09T10:53:02;90610.19;;;-140.63;43.89
11302;BME280;5706;50.650;13.380;2023-04-09T10:55:35;90264.78;;;-140.63;42.11
11302;BME280;5706;50.650;13.380;2023-04-09T10:58:05;90076.03;;;-140.63;38.88
11302;BME280;5706;50.650;13.380;2023-04-09T11:00:37;89869.22;;;-140.63;36.69
11302;BME280;5706;50.650;13.380;2023-04-09T11:03:22;89680.50;;;-140.63;35.04
11302;BME280;5706;50.650;13.380;2023-04-09T11:05:54;89670.47;;;-140.63;32.69
11302;BME280;5706;50.650;13.380;2023-04-09T11:08:27;89889.31;;;-140.63;34.37
11302;BME280;5706;50.650;13.380;2023-04-09T11:10:56;90176.44;;;-140.63;37.21
11302;BME280;5706;50.650;13.380;2023-04-09T11:13:27;90234.66;;;-140.63;38.42
11302;BME280;5706;50.650;13.380;2023-04-09T11:15:56;90349.13;;;-140.63;39.57
11302;BME280;5706;50.650;13.380;2023-04-09T11:18:26;90074.03;;;-140.63;38.99
11302;BME280;5706;50.650;13.380;2023-04-09T11:20:55;89913.41;;;-140.63;37.59
11302;BME280;5706;50.650;13.380;2023-04-09T11:23:24;89823.06;;;-140.63;36.06
11302;BME280;5706;50.650;13.380;2023-04-09T11:25:53;89734.72;;;-140.63;34.72
11302;BME280;5706;50.650;13.380;2023-04-09T11:28:22;89600.19;;;-140.63;33.79
11302;BME280;5706;50.650;13.380;2023-04-09T11:30:51;89819.03;;;-140.63;34.20
11302;BME280;5706;50.650;13.380;2023-04-09T11:33:19;90043.91;;;-140.63;35.46
11302;BME280;5706;50.650;13.380;2023-04-09T11:35:46;90343.09;;;-140.63;37.44
11302;BME280;5706;50.650;13.380;2023-04-09T11:38:14;90347.13;;;-140.63;38.54
11302;BME280;5706;50.650;13.380;2023-04-09T11:40:43;90447.53;;;-140.63;39.14
11302;BME280;5706;50.650;13.380;2023-04-09T11:43:13;90401.34;;;-140.63;39.72
11302;BME280;5706;50.650;13.380;2023-04-09T11:45:42;90407.38;;;-140.63;39.14
11302;BME280;5706;50.650;13.380;2023-04-09T11:48:13;90381.25;;;-140.63;39.20
11302;BME280;5706;50.650;13.380;2023-04-09T11:50:42;90148.31;;;-140.63;40.00
11302;BME280;5706;50.650;13.380;2023-04-09T11:53:17;90172.41;;;-140.63;39.02
11302;BME280;5706;50.650;13.380;2023-04-09T11:55:48;90306.97;;;-140.63;38.59
11302;BME280;5706;50.650;13.380;2023-04-09T11:58:16;101576.03;;;-140.64;38.90
11302;BME280;5706;50.650;13.380;2023-04-09T12:00:47;90351.13;;;-140.63;39.32
11302;BME280;5706;50.650;13.380;2023-04-09T12:03:26;90373.22;;;-140.63;39.57
11302;BME280;5706;50.650;13.380;2023-04-09T12:05:58;90455.56;;;-140.63;39.83
11302;BME280;5706;50.650;13.380;2023-04-09T12:08:28;90497.72;;;-140.63;40.46
11302;BME280;5706;50.650;13.380;2023-04-09T12:11:07;90495.72;;;-140.63;41.17
11302;BME280;5706;50.650;13.380;2023-04-09T12:13:35;90527.84;;;-140.63;41.79
11302;BME280;5706;50.650;13.380;2023-04-09T12:16:07;90497.72;;;-140.63;40.78
11302;BME280;5706;50.650;13.380;2023-04-09T12:18:36;90519.81;;;-140.63;40.61
11302;BME280;5706;50.650;13.380;2023-04-09T12:21:04;90501.75;;;-140.63;40.19
11302;BME280;5706;50.650;13.380;2023-04-09T12:23:32;90545.94;;;-140.63;40.80
11302;BME280;5706;50.650;13.380;2023-04-09T12:26:00;90511.78;;;-140.63;41.00
11302;BME280;5706;50.650;13.380;2023-04-09T12:28:29;90596.13;;;-140.63;40.73
11302;BME280;5706;50.650;13.380;2023-04-09T12:30:57;90559.97;;;-140.63;39.95
11302;BME280;5706;50.650;13.380;2023-04-09T12:33:25;90568.00;;;-140.63;40.96
11302;BME280;5706;50.650;13.380;2023-04-09T12:35:54;90517.81;;;-140.63;40.46
11302;BME280;5706;50.650;13.380;2023-04-09T12:38:22;90519.81;;;-140.63;40.61
11302;BME280;5706;50.650;13.380;2023-04-09T12:40:51;90421.41;;;-140.63;40.40
11302;BME280;5706;50.650;13.380;2023-04-09T12:43:18;90419.41;;;-140.63;40.35
11302;BME280;5706;50.650;13.380;2023-04-09T12:45:46;90417.41;;;-140.63;39.81
11302;BME280;5706;50.650;13.380;2023-04-09T12:48:13;90383.25;;;-140.63;39.73
11302;BME280;5706;50.650;13.380;2023-04-09T12:50:41;90397.31;;;-140.63;40.33
11302;BME280;5706;50.650;13.380;2023-04-09T12:53:10;90395.31;;;-140.63;39.18
11302;BME280;5706;50.650;13.380;2023-04-09T12:55:37;90347.13;;;-140.63;39.93
11302;BME280;5706;50.650;13.380;2023-04-09T12:58:05;90375.22;;;-140.63;39.30
11302;BME280;5706;50.650;13.380;2023-04-09T13:00:32;90333.06;;;-140.63;39.00
11302;BME280;5706;50.650;13.380;2023-04-09T13:03:01;90377.25;;;-140.63;40.24
11302;BME280;5706;50.650;13.380;2023-04-09T13:05:29;90419.41;;;-140.63;40.50
11302;BME280;5706;50.650;13.380;2023-04-09T13:07:59;90315.00;;;-140.63;40.27
11302;BME280;5706;50.650;13.380;2023-04-09T13:10:30;90407.38;;;-140.63;39.77
11302;BME280;5706;50.650;13.380;2023-04-09T13:12:57;90433.47;;;-140.63;40.35
11302;BME280;5706;50.650;13.380;2023-04-09T13:15:25;90385.28;;;-140.63;41.02
11302;BME280;5706;50.650;13.380;2023-04-09T13:17:52;90465.59;;;-140.63;41.66
11302;BME280;5706;50.650;13.380;2023-04-09T13:20:21;90463.59;;;-140.63;40.44
11302;BME280;5706;50.650;13.380;2023-04-09T13:22:48;90431.47;;;-140.63;40.95
11302;BME280;5706;50.650;13.380;2023-04-09T13:25:16;90447.53;;;-140.63;40.46
11302;BME280;5706;50.650;13.380;2023-04-09T13:27:45;90403.34;;;-140.63;40.05
11302;BME280;5706;50.650;13.380;2023-04-09T13:30:13;90403.34;;;-140.63;40.00
11302;BME280;5706;50.650;13.380;2023-04-09T13:32:40;90395.31;;;-140.63;39.49
11302;BME280;5706;50.650;13.380;2023-04-09T13:35:08;90451.53;;;-140.63;41.00
11302;BME280;5706;50.650;13.380;2023-04-09T13:37:36;90439.50;;;-140.63;40.84
11302;BME280;5706;50.650;13.380;2023-04-09T13:40:05;90437.50;;;-140.63;39.62
11302;BME280;5706;50.650;13.380;2023-04-09T13:42:34;90451.53;;;-140.63;40.04
11302;BME280;5706;50.650;13.380;2023-04-09T13:45:04;90409.38;;;-140.63;40.10
11302;BME280;5706;50.650;13.380;2023-04-09T13:47:33;90379.25;;;-140.63;40.02
11302;BME280;5706;50.650;13.380;2023-04-09T13:50:02;90349.13;;;-140.63;39.53
11302;BME280;5706;50.650;13.380;2023-04-09T13:52:30;90329.03;;;-140.63;39.45
11302;BME280;5706;50.650;13.380;2023-04-09T13:54:58;90331.06;;;-140.63;39.34
11302;BME280;5706;50.650;13.380;2023-04-09T13:57:28;90355.16;;;-140.63;38.29
11302;BME280;5706;50.650;13.380;2023-04-09T13:59:56;90355.16;;;-140.63;38.47
11302;BME280;5706;50.650;13.380;2023-04-09T14:02:27;90381.25;;;-140.63;38.88
11302;BME280;5706;50.650;13.380;2023-04-09T14:04:55;90387.28;;;-140.63;38.79
11302;BME280;5706;50.650;13.380;2023-04-09T14:07:23;90339.09;;;-140.63;39.52
11302;BME280;5706;50.650;13.380;2023-04-09T14:09:50;90290.91;;;-140.63;38.27
11302;BME280;5706;50.650;13.380;2023-04-09T14:12:18;90288.88;;;-140.63;37.38
11302;BME280;5706;50.650;13.380;2023-04-09T14:14:45;90284.88;;;-140.63;37.11
11302;BME280;5706;50.650;13.380;2023-04-09T14:17:14;90268.81;;;-140.63;37.22
11302;BME280;5706;50.650;13.380;2023-04-09T14:19:43;90315.00;;;-140.63;37.63
11302;BME280;5706;50.650;13.380;2023-04-09T14:22:11;90369.22;;;-140.63;38.66
11302;BME280;5706;50.650;13.380;2023-04-09T14:24:39;90431.47;;;-140.63;38.62
11302;BME280;5706;50.650;13.380;2023-04-09T14:27:07;90463.59;;;-140.63;37.59
11302;BME280;5706;50.650;13.380;2023-04-09T14:29:34;90415.41;;;-140.63;38.08
11302;BME280;5706;50.650;13.380;2023-04-09T14:32:02;90363.19;;;-140.63;37.31